Time;durP1;ratioP1;P1;durP2;ratioP2;P2;SDS_P1;SDS_P2;PMS_P1;PMS_P2;Temp;Humidity;BMP_temperature;BMP_pressure;BME280_temperature;BME280_humidity;BME280_pressure;Samples;Min_cycle;Max_cycle;Signal;HPM_P1;HPM_P2
2022/10/03 00:01:46;;;;;;;9.23;3.10;;;11.30;99.90;;;;;;5031568;28;20033;-83
2022/10/03 00:04:18;;;;;;;14.00;3.47;;;11.20;99.90;;;;;;5013552;28;20105;-83
2022/10/03 00:07:07;;;;;;;8.77;3.43;;;11.20;99.90;;;;;;5012945;28;20045;-83
2022/10/03 00:09:56;;;;;;;14.98;4.40;;;11.20;99.90;;;;;;5001906;28;20050;-83
2022/10/03 00:12:46;;;;;;;13.20;3.60;;;11.10;99.90;;;;;;4996448;28;20088;-83
2022/10/03 00:15:24;;;;;;;15.07;3.90;;;11.10;99.90;;;;;;5030679;28;20048;-83
2022/10/03 00:18:01;;;;;;;9.93;4.50;;;11.10;99.90;;;;;;5030349;28;20025;-83
2022/10/03 00:20:47;;;;;;;11.40;3.87;;;11.10;99.90;;;;;;5030599;28;20041;-83
2022/10/03 00:23:38;;;;;;;12.13;4.07;;;11.10;99.90;;;;;;5012780;28;20448;-83
2022/10/03 00:26:39;;;;;;;12.30;4.00;;;11.10;99.90;;;;;;5011476;28;20390;-87
2022/10/03 00:29:13;;;;;;;12.17;3.90;;;11.10;99.90;;;;;;5017093;28;20017;-87
2022/10/03 00:32:13;;;;;;;10.70;3.20;;;11.10;99.90;;;;;;5050495;28;20033;-84
2022/10/03 00:34:58;;;;;;;10.07;3.10;;;11.10;99.90;;;;;;5031936;28;20094;-84
2022/10/03 00:37:32;;;;;;;13.80;3.40;;;11.00;99.90;;;;;;5032085;28;20489;-83
2022/10/03 00:39:58;;;;;;;9.73;3.30;;;11.00;99.90;;;;;;5049952;28;20025;-84
2022/10/03 00:42:47;;;;;;;10.87;3.23;;;11.00;99.90;;;;;;5049920;28;20033;-83
2022/10/03 00:46:04;;;;;;;12.35;3.65;;;10.90;99.90;;;;;;5050286;28;20028;-84
2022/10/03 00:48:44;;;;;;;9.13;2.87;;;11.00;99.90;;;;;;5015961;28;20041;-83
2022/10/03 00:51:16;;;;;;;11.93;3.33;;;10.90;99.90;;;;;;5049995;28;20032;-83
2022/10/03 00:53:50;;;;;;;10.33;3.00;;;10.90;99.90;;;;;;5052552;28;20032;-83
2022/10/03 00:56:47;;;;;;;8.87;3.10;;;10.90;99.90;;;;;;5053694;28;20486;-83
2022/10/03 00:59:36;;;;;;;11.03;3.10;;;10.90;99.90;;;;;;5053755;28;20432;-84
2022/10/03 01:02:18;;;;;;;;;;;10.80;99.90;;;;;;5054071;28;20055;-83
2022/10/03 01:04:44;;;;;;;10.63;2.93;;;10.80;99.90;;;;;;5053896;28;19909;-83
2022/10/03 01:07:21;;;;;;;17.33;3.30;;;10.80;99.90;;;;;;5053497;28;20112;-83
2022/10/03 01:10:17;;;;;;;12.00;3.37;;;10.80;99.90;;;;;;5035586;28;20043;-83
2022/10/03 01:12:51;;;;;;;7.30;2.37;;;10.80;99.90;;;;;;5053615;28;20069;-83
2022/10/03 01:15:20;;;;;;;9.73;3.40;;;10.80;99.90;;;;;;5053661;28;20469;-83
2022/10/03 01:18:08;;;;;;;9.25;2.83;;;10.80;99.90;;;;;;5035471;28;20075;-83
2022/10/03 01:20:36;;;;;;;10.23;3.07;;;10.80;99.90;;;;;;5053327;28;20422;-83
2022/10/03 01:23:27;;;;;;;10.52;3.10;;;10.70;99.90;;;;;;5035576;28;20048;-83
2022/10/03 01:26:23;;;;;;;9.33;3.07;;;10.80;99.90;;;;;;5035417;28;20057;-83
2022/10/03 01:32:19;;;;;;;11.67;3.07;;;10.70;99.90;;;;;;4991757;28;20048;-83
2022/10/03 01:35:06;;;;;;;12.23;2.97;;;10.70;99.90;;;;;;5053219;28;20040;-84
2022/10/03 01:37:57;;;;;;;8.53;2.80;;;10.70;99.90;;;;;;5053090;28;20033;-83
2022/10/03 01:40:38;;;;;;;11.10;3.00;;;10.70;99.90;;;;;;5052839;28;20033;-83
2022/10/03 01:43:33;;;;;;;8.73;2.87;;;10.70;99.90;;;;;;5052880;28;20033;-83
2022/10/03 01:46:22;;;;;;;8.53;2.83;;;10.60;99.90;;;;;;5042586;28;20060;-83
2022/10/03 01:48:51;;;;;;;12.00;3.40;;;10.60;99.90;;;;;;5053034;28;20331;-83
2022/10/03 01:51:32;;;;;;;11.95;2.88;;;10.70;99.90;;;;;;5052999;28;20055;-83
2022/10/03 01:54:10;;;;;;;15.10;3.57;;;10.60;99.90;;;;;;5035207;28;20048;-83
2022/10/03 01:56:43;;;;;;;12.73;3.00;;;10.60;99.90;;;;;;5052684;28;20025;-84
2022/10/03 01:59:16;;;;;;;11.97;3.30;;;10.60;99.90;;;;;;5052775;28;20082;-84
2022/10/03 02:02:06;;;;;;;9.20;3.33;;;10.60;99.90;;;;;;5034701;28;20119;-84
2022/10/03 02:04:59;;;;;;;10.87;2.90;;;10.50;99.90;;;;;;5014777;28;20043;-84
2022/10/03 02:07:29;;;;;;;14.07;3.23;;;10.50;99.90;;;;;;5052426;28;20025;-83
2022/10/03 02:10:17;;;;;;;10.03;3.60;;;10.60;99.90;;;;;;5052407;28;20044;-83
2022/10/03 02:13:19;;;;;;;13.27;3.27;;;10.60;99.90;;;;;;5052537;28;20036;-83
2022/10/03 02:16:01;;;;;;;13.93;3.87;;;10.60;99.90;;;;;;5034477;28;20041;-83
2022/10/03 02:18:57;;;;;;;10.67;3.70;;;10.50;99.90;;;;;;5034583;28;20040;-83
2022/10/03 02:21:31;;;;;;;13.97;3.77;;;10.50;99.90;;;;;;5052101;28;20033;-83
2022/10/03 02:24:15;;;;;;;10.40;3.00;;;10.50;99.90;;;;;;5034587;28;20033;-83
2022/10/03 02:27:19;;;;;;;8.53;2.97;;;10.50;99.90;;;;;;5052104;28;20540;-83
2022/10/03 02:30:15;;;;;;;12.93;3.50;;;10.40;99.90;;;;;;5051910;28;20564;-83
2022/10/03 02:33:17;;;;;;;13.53;3.13;;;10.50;99.90;;;;;;5052177;28;20040;-83
2022/10/03 02:36:19;;;;;;;12.67;3.50;;;10.40;99.90;;;;;;5034019;28;20656;-83
2022/10/03 02:39:22;;;;;;;11.00;2.87;;;10.40;99.90;;;;;;5051846;28;20049;-83
2022/10/03 02:41:56;;;;;;;9.87;2.97;;;10.40;99.90;;;;;;5051666;28;20094;-83
2022/10/03 02:44:52;;;;;;;8.80;2.73;;;10.50;99.90;;;;;;5034150;28;20033;-83
2022/10/03 02:48:04;;;;;;;11.77;3.20;;;10.50;99.90;;;;;;5034371;28;20370;-83
2022/10/03 02:50:42;;;;;;;11.53;3.50;;;10.50;99.90;;;;;;5051756;28;20021;-83
2022/10/03 02:53:53;;;;;;;12.70;3.00;;;10.40;99.90;;;;;;5051884;28;20633;-84
2022/10/03 02:56:55;;;;;;;13.30;3.47;;;10.50;99.90;;;;;;5031623;28;20040;-83
2022/10/03 02:59:48;;;;;;;9.70;2.80;;;10.40;99.90;;;;;;5051523;28;20437;-84
2022/10/03 03:02:41;;;;;;;12.57;3.63;;;10.40;99.90;;;;;;5051692;28;20032;-84
2022/10/03 03:05:31;;;;;;;14.70;3.70;;;10.40;99.90;;;;;;5051852;28;20033;-84
2022/10/03 03:08:10;;;;;;;15.90;3.50;;;10.40;99.90;;;;;;5051591;28;20025;-84
2022/10/03 03:11:05;;;;;;;8.18;2.97;;;10.40;99.90;;;;;;5051583;28;20036;-84
2022/10/03 03:13:58;;;;;;;10.37;3.30;;;10.30;99.90;;;;;;5051621;28;20043;-84
2022/10/03 03:16:54;;;;;;;9.57;3.90;;;10.40;99.90;;;;;;5032918;28;20131;-84
2022/10/03 03:19:20;;;;;;;9.23;3.07;;;10.40;99.90;;;;;;5051364;28;20048;-84
2022/10/03 03:22:01;;;;;;;9.20;3.13;;;10.40;99.90;;;;;;5051239;28;20037;-84
2022/10/03 03:24:41;;;;;;;10.07;3.23;;;10.40;99.90;;;;;;5051600;28;20032;-84
2022/10/03 03:27:22;;;;;;;11.27;3.20;;;10.30;99.90;;;;;;5051378;28;20029;-83
2022/10/03 03:30:08;;;;;;;13.07;3.50;;;10.30;99.90;;;;;;5051170;28;20025;-83
2022/10/03 03:32:44;;;;;;;10.10;3.33;;;10.30;99.90;;;;;;5051456;28;20112;-83
2022/10/03 03:35:20;;;;;;;16.33;3.37;;;10.20;99.90;;;;;;5051380;28;20523;-83
2022/10/03 03:38:24;;;;;;;10.43;3.40;;;10.20;99.90;;;;;;5051052;28;20033;-83
2022/10/03 03:41:08;;;;;;;13.63;3.40;;;10.20;99.90;;;;;;5050885;28;20056;-84
2022/10/03 03:43:39;;;;;;;10.70;3.43;;;10.20;99.90;;;;;;5051087;22;20521;-87
2022/10/03 03:46:44;;;;;;;9.13;3.30;;;10.20;99.90;;;;;;5030948;28;20025;-88
2022/10/03 03:49:35;;;;;;;13.33;3.70;;;10.20;99.90;;;;;;5031087;28;20496;-88
2022/10/03 03:52:27;;;;;;;9.63;3.20;;;10.30;99.90;;;;;;5013396;28;20033;-87
2022/10/03 03:55:08;;;;;;;16.63;3.50;;;10.30;99.90;;;;;;5031200;28;20363;-88
2022/10/03 03:57:40;;;;;;;9.60;3.30;;;10.20;99.90;;;;;;5030722;28;20401;-88
2022/10/03 04:00:14;;;;;;;9.80;3.47;;;10.20;99.90;;;;;;5013441;28;20044;-88
2022/10/03 04:03:22;;;;;;;17.30;3.77;;;10.20;99.90;;;;;;5030990;28;20500;-88
2022/10/03 04:06:24;;;;;;;9.47;3.63;;;10.20;99.90;;;;;;5013122;28;20103;-85
2022/10/03 04:09:16;;;;;;;11.73;3.37;;;10.20;99.90;;;;;;5031721;28;20379;-85
2022/10/03 04:11:58;;;;;;;10.50;3.37;;;10.20;99.90;;;;;;4998680;28;20254;-85
2022/10/03 04:14:27;;;;;;;11.57;3.57;;;10.20;99.90;;;;;;5031088;28;20504;-85
2022/10/03 04:20:18;;;;;;;10.67;3.60;;;10.40;99.90;;;;;;5012644;28;20037;-85
2022/10/03 04:23:01;;;;;;;15.27;3.90;;;10.30;99.90;;;;;;5013074;28;20042;-86
2022/10/03 04:25:49;;;;;;;13.33;3.53;;;10.30;99.90;;;;;;5031017;28;20053;-85
2022/10/03 04:28:39;;;;;;;17.23;4.60;;;10.30;99.90;;;;;;5017595;28;20029;-85
2022/10/03 04:31:28;;;;;;;9.73;4.23;;;10.30;99.90;;;;;;5018110;28;20029;-85
2022/10/03 04:34:28;;;;;;;10.30;4.00;;;10.20;99.90;;;;;;5035022;28;20044;-85
2022/10/03 04:40:58;;;;;;;8.23;3.30;;;10.30;99.90;;;;;;5035639;28;20033;-85
2022/10/03 04:43:42;;;;;;;15.25;3.58;;;10.30;99.90;;;;;;5000416;28;20037;-81
2022/10/03 04:46:48;;;;;;;17.20;4.03;;;10.30;99.90;;;;;;5034633;28;20033;-81
2022/10/03 04:49:52;;;;;;;10.63;3.67;;;10.30;99.90;;;;;;5034193;28;20037;-80
2022/10/03 04:52:50;;;;;;;10.00;3.77;;;10.30;99.90;;;;;;5013191;28;20099;-80
2022/10/03 04:55:27;;;;;;;11.37;3.53;;;10.30;99.90;;;;;;5034470;28;20175;-80
2022/10/03 04:58:16;;;;;;;11.97;3.50;;;10.30;99.90;;;;;;5034298;28;20362;-82
2022/10/03 05:01:06;;;;;;;11.00;4.55;;;10.30;99.90;;;;;;5016342;28;20612;-81
2022/10/03 05:04:00;;;;;;;15.33;4.93;;;10.40;99.90;;;;;;5034080;28;20030;-81
2022/10/03 05:06:57;;;;;;;12.67;3.90;;;10.30;99.90;;;;;;5036541;28;20390;-82
2022/10/03 05:09:38;;;;;;;16.80;4.67;;;10.30;99.90;;;;;;5025951;28;20080;-81
2022/10/03 05:12:13;;;;;;;11.10;4.07;;;10.30;99.90;;;;;;5033734;28;20060;-81
2022/10/03 05:15:10;;;;;;;14.73;4.13;;;10.40;99.90;;;;;;5034099;28;20033;-81
2022/10/03 05:18:03;;;;;;;9.50;3.77;;;10.40;99.90;;;;;;5033893;28;20394;-81
2022/10/03 05:20:53;;;;;;;10.73;3.43;;;10.40;99.90;;;;;;5033619;28;20044;-81
2022/10/03 05:23:43;;;;;;;12.53;3.60;;;10.40;99.90;;;;;;5033831;28;20112;-81
2022/10/03 05:26:29;;;;;;;13.27;4.30;;;10.40;99.90;;;;;;5015976;28;20034;-83
2022/10/03 05:29:14;;;;;;;17.83;4.63;;;10.40;99.90;;;;;;5033347;28;20493;-82
2022/10/03 05:31:49;;;;;;;10.23;3.77;;;10.50;99.90;;;;;;5033629;28;20034;-84
2022/10/03 05:34:15;;;;;;;14.47;4.30;;;10.60;99.90;;;;;;5014637;28;20115;-83
2022/10/03 05:37:15;;;;;;;15.17;4.13;;;10.60;99.90;;;;;;5033402;28;20025;-83
2022/10/03 05:40:00;;;;;;;9.27;3.90;;;10.60;99.90;;;;;;5032470;28;20067;-83
2022/10/03 05:42:44;;;;;;;13.00;4.20;;;10.70;99.90;;;;;;5014627;28;20030;-83
2022/10/03 05:45:41;;;;;;;11.57;3.83;;;10.80;99.90;;;;;;5015880;28;20385;-83
2022/10/03 05:48:30;;;;;;;11.47;3.83;;;10.90;99.90;;;;;;5033397;28;20549;-83
2022/10/03 05:51:10;;;;;;;12.55;3.80;;;11.00;99.90;;;;;;5033300;28;20113;-83
2022/10/03 05:53:42;;;;;;;8.63;3.70;;;11.00;99.90;;;;;;5033269;28;20021;-82
2022/10/03 05:56:42;;;;;;;16.03;4.40;;;11.00;99.90;;;;;;5033314;28;20101;-83
2022/10/03 05:59:29;;;;;;;12.73;4.73;;;11.10;99.90;;;;;;5033337;28;20037;-80
2022/10/03 06:02:20;;;;;;;14.13;4.27;;;11.10;99.90;;;;;;5033017;28;20589;-80
2022/10/03 06:05:10;;;;;;;13.57;4.20;;;11.10;99.90;;;;;;5035138;28;20030;-90
2022/10/03 06:08:16;;;;;;;11.40;4.23;;;11.10;99.90;;;;;;5001939;28;20045;-87
2022/10/03 06:10:48;;;;;;;13.53;4.17;;;11.00;99.90;;;;;;5016735;28;20045;-90
2022/10/03 06:13:20;;;;;;;9.17;4.00;;;11.00;99.90;;;;;;5065179;22;20041;-68
2022/10/03 06:15:57;;;;;;;13.40;3.80;;;11.00;99.90;;;;;;5072655;28;20556;-66
2022/10/03 06:18:41;;;;;;;10.23;3.70;;;10.90;99.90;;;;;;5072790;28;20028;-67
2022/10/03 06:21:15;;;;;;;10.33;4.00;;;10.90;99.90;;;;;;5073018;28;20703;-67
2022/10/03 06:24:28;;;;;;;9.53;3.40;;;10.90;99.90;;;;;;5072948;28;20096;-70
2022/10/03 06:27:31;;;;;;;13.10;4.73;;;10.90;99.90;;;;;;5072461;28;20035;-70
2022/10/03 06:30:20;;;;;;;14.50;5.17;;;10.90;99.90;;;;;;5072573;28;20047;-68
2022/10/03 06:33:05;;;;;;;;;;;10.90;99.90;;;;;;5073026;28;20039;-69
2022/10/03 06:35:46;;;;;;;12.07;3.90;;;11.00;99.90;;;;;;5072399;28;20002;-67
2022/10/03 06:38:50;;;;;;;13.60;4.43;;;11.00;99.90;;;;;;5072373;28;20032;-68
2022/10/03 06:41:44;;;;;;;11.57;4.53;;;11.00;99.90;;;;;;5072245;28;20060;-67
2022/10/03 06:44:45;;;;;;;14.10;4.53;;;11.00;99.90;;;;;;5054414;28;20037;-68
2022/10/03 06:47:30;;;;;;;13.80;4.60;;;11.00;99.90;;;;;;5067362;28;20045;-67
2022/10/03 06:50:11;;;;;;;15.33;4.27;;;11.00;99.90;;;;;;5071984;28;20097;-68
2022/10/03 06:52:40;;;;;;;15.43;4.70;;;11.00;99.90;;;;;;5072111;28;20036;-68
2022/10/03 06:55:45;;;;;;;14.68;5.13;;;11.00;99.90;;;;;;5071984;28;20200;-67
2022/10/03 06:58:33;;;;;;;16.77;4.30;;;11.10;99.90;;;;;;5072281;28;20044;-72
2022/10/03 07:01:27;;;;;;;10.33;4.03;;;11.20;99.90;;;;;;5071321;28;20048;-67
2022/10/03 07:04:31;;;;;;;13.80;4.67;;;11.20;99.90;;;;;;5046653;28;20496;-69
2022/10/03 07:07:18;;;;;;;10.77;5.03;;;11.20;99.90;;;;;;5036009;28;20032;-68
2022/10/03 07:10:12;;;;;;;10.20;4.87;;;11.30;99.90;;;;;;5053058;28;20031;-66
2022/10/03 07:12:53;;;;;;;18.73;5.00;;;11.40;99.90;;;;;;5071454;28;20035;-68
2022/10/03 07:15:39;;;;;;;14.40;4.93;;;11.50;99.90;;;;;;5071696;28;20496;-68
2022/10/03 07:18:23;;;;;;;13.07;5.10;;;11.50;99.90;;;;;;5071349;28;20055;-68
2022/10/03 07:21:30;;;;;;;11.90;4.97;;;11.60;99.90;;;;;;5070451;28;20028;-69
2022/10/03 07:24:39;;;;;;;13.97;5.70;;;11.60;99.90;;;;;;5071514;28;20031;-69
2022/10/03 07:27:24;;;;;;;15.80;5.95;;;11.60;99.90;;;;;;5000806;28;20045;-69
2022/10/03 07:30:14;;;;;;;20.10;6.37;;;11.70;99.90;;;;;;5070963;28;20029;-69
2022/10/03 07:33:03;;;;;;;12.90;5.40;;;11.70;99.90;;;;;;5071329;28;20033;-69
2022/10/03 07:39:06;;;;;;;14.27;5.67;;;11.80;99.90;;;;;;5072395;28;20039;-68
2022/10/03 07:41:59;;;;;;;14.23;5.72;;;11.90;99.90;;;;;;5071299;28;20103;-69
2022/10/03 07:45:00;;;;;;;14.90;6.27;;;11.90;99.90;;;;;;5071575;28;20070;-68
2022/10/03 07:47:57;;;;;;;17.63;6.80;;;12.00;99.90;;;;;;5071511;28;20385;-69
2022/10/03 07:50:58;;;;;;;13.17;6.60;;;12.10;99.90;;;;;;5071053;28;20406;-70
2022/10/03 07:53:51;;;;;;;13.33;6.50;;;12.10;99.90;;;;;;5071572;28;20033;-69
2022/10/03 07:56:26;;;;;;;13.85;5.50;;;12.10;99.90;;;;;;5071163;28;20488;-70
2022/10/03 07:59:03;;;;;;;15.10;5.93;;;12.10;99.90;;;;;;5071338;28;20060;-69
2022/10/03 08:02:07;;;;;;;17.77;6.93;;;12.10;99.90;;;;;;5070703;28;20111;-68
2022/10/03 08:04:58;;;;;;;17.20;6.40;;;12.00;99.90;;;;;;5071217;28;20402;-71
2022/10/03 08:07:33;;;;;;;19.10;6.93;;;12.00;99.90;;;;;;5071013;28;20473;-69
2022/10/03 08:10:29;;;;;;;14.00;6.07;;;12.00;99.90;;;;;;5070989;28;20028;-69
2022/10/03 08:13:13;;;;;;;14.17;6.37;;;12.00;99.90;;;;;;5052976;28;20504;-69
2022/10/03 08:16:00;;;;;;;15.63;6.73;;;12.00;99.90;;;;;;5070867;28;20128;-70
2022/10/03 08:18:28;;;;;;;14.57;5.67;;;12.10;99.90;;;;;;5070996;28;20028;-69
2022/10/03 08:21:03;;;;;;;13.30;7.07;;;12.10;99.90;;;;;;5052437;28;20040;-70
2022/10/03 08:23:48;;;;;;;15.15;6.53;;;12.10;99.90;;;;;;5071565;28;20428;-70
2022/10/03 08:26:19;;;;;;;15.38;6.30;;;12.20;99.90;;;;;;5070949;28;20029;-71
2022/10/03 08:28:51;;;;;;;17.52;7.28;;;12.20;99.90;;;;;;5071158;28;20060;-69
2022/10/03 08:31:34;;;;;;;17.45;6.45;;;12.20;99.90;;;;;;5071088;28;20036;-69
2022/10/03 08:34:32;;;;;;;16.58;7.35;;;12.30;99.90;;;;;;5071048;28;20037;-69
2022/10/03 08:37:47;;;;;;;13.97;6.20;;;12.30;99.90;;;;;;5052921;28;20155;-68
2022/10/03 08:40:39;;;;;;;16.17;6.72;;;12.40;99.90;;;;;;5070603;28;20462;-70
2022/10/03 08:43:19;;;;;;;19.05;7.32;;;12.40;99.90;;;;;;5043275;28;20068;-69
2022/10/03 08:45:51;;;;;;;15.57;7.05;;;12.50;99.90;;;;;;5070680;28;20039;-70
2022/10/03 08:48:32;;;;;;;18.13;7.40;;;12.50;99.90;;;;;;5070916;28;20055;-69
2022/10/03 08:51:26;;;;;;;19.52;7.20;;;12.50;99.90;;;;;;5052806;28;20036;-71
2022/10/03 08:54:15;;;;;;;17.98;7.10;;;12.60;99.90;;;;;;5070864;28;20048;-70
2022/10/03 08:57:08;;;;;;;20.50;7.05;;;12.60;99.90;;;;;;5070813;28;20029;-69
2022/10/03 08:59:53;;;;;;;17.85;6.55;;;12.70;99.90;;;;;;5070553;28;20108;-70
2022/10/03 09:02:28;;;;;;;16.83;6.40;;;12.70;99.90;;;;;;5070622;28;20043;-69
2022/10/03 09:05:21;;;;;;;13.30;5.78;;;12.80;99.90;;;;;;5052852;28;20508;-69
2022/10/03 09:08:34;;;;;;;15.43;6.07;;;12.80;99.90;;;;;;5070752;28;20071;-69
2022/10/03 09:11:37;;;;;;;15.85;6.28;;;12.80;99.90;;;;;;5043136;28;20044;-70
2022/10/03 09:14:07;;;;;;;15.68;6.28;;;12.90;99.90;;;;;;5072594;28;20043;-69
2022/10/03 09:17:00;;;;;;;14.98;6.15;;;12.90;99.90;;;;;;5074242;28;20028;-69
2022/10/03 09:19:48;;;;;;;15.82;5.38;;;13.00;99.90;;;;;;5056573;28;20028;-70
2022/10/03 09:22:45;;;;;;;17.23;6.75;;;13.00;99.90;;;;;;5056220;28;20028;-69
2022/10/03 09:25:29;;;;;;;17.50;5.45;;;13.00;99.90;;;;;;5074433;28;20035;-69
2022/10/03 09:28:26;;;;;;;15.00;4.85;;;13.00;99.90;;;;;;5074205;28;20031;-69
2022/10/03 09:31:19;;;;;;;17.25;5.30;;;13.10;99.90;;;;;;5073988;28;20392;-69
2022/10/03 09:33:58;;;;;;;14.18;5.15;;;13.10;99.90;;;;;;5074316;28;20118;-69
2022/10/03 09:36:59;;;;;;;12.85;5.05;;;13.10;99.90;;;;;;5074218;28;20032;-69
2022/10/03 09:39:32;;;;;;;15.07;5.40;;;13.20;99.90;;;;;;5074238;28;20500;-70
2022/10/03 09:45:09;;;;;;;17.55;5.53;;;13.20;99.90;;;;;;5068918;28;20040;-85
2022/10/03 09:47:48;;;;;;;13.73;4.80;;;13.30;99.90;;;;;;5073340;28;20028;-84
2022/10/03 09:50:54;;;;;;;12.85;4.60;;;13.40;99.90;;;;;;5071964;28;20025;-85
2022/10/03 09:53:57;;;;;;;11.63;4.88;;;13.40;99.90;;;;;;5072139;28;20086;-84
2022/10/03 09:57:07;;;;;;;16.20;4.22;;;13.40;99.90;;;;;;5073085;28;20032;-85
2022/10/03 09:59:56;;;;;;;12.65;3.40;;;13.50;99.90;;;;;;5014169;28;20029;-85
2022/10/03 10:02:33;;;;;;;12.40;3.93;;;13.60;99.90;;;;;;5030836;28;20478;-84
2022/10/03 10:05:26;;;;;;;11.60;3.90;;;13.60;99.90;;;;;;5062009;28;20767;-84
2022/10/03 10:08:07;;;;;;;12.07;3.47;;;13.60;99.90;;;;;;5072883;28;20540;-85
2022/10/03 10:10:54;;;;;;;10.70;2.90;;;13.70;99.90;;;;;;5072829;28;20150;-85
2022/10/03 10:13:44;;;;;;;8.93;2.50;;;13.70;99.90;;;;;;5072843;28;20477;-85
2022/10/03 10:16:34;;;;;;;16.13;3.50;;;13.70;99.90;;;;;;5072578;28;20480;-84
2022/10/03 10:19:12;;;;;;;9.07;2.60;;;13.80;99.90;;;;;;5072696;28;20028;-85
2022/10/03 10:21:40;;;;;;;11.75;3.10;;;13.80;99.90;;;;;;5072728;28;20035;-85
2022/10/03 10:24:51;;;;;;;10.73;2.58;;;13.80;99.90;;;;;;5072341;28;20027;-85
2022/10/03 10:27:32;;;;;;;9.50;2.40;;;13.90;99.90;;;;;;5071278;28;20037;-84
2022/10/03 10:30:07;;;;;;;7.50;2.28;;;14.00;99.90;;;;;;5072462;28;20032;-85
2022/10/03 10:32:50;;;;;;;11.80;2.70;;;14.00;99.90;;;;;;5071145;28;20127;-85
2022/10/03 10:36:05;;;;;;;8.52;2.38;;;14.00;99.90;;;;;;5072875;28;20124;-84
2022/10/03 10:38:37;;;;;;;11.00;2.25;;;14.10;99.90;;;;;;5072602;28;20033;-85
2022/10/03 10:41:24;;;;;;;12.57;2.65;;;14.20;99.90;;;;;;5072418;28;20082;-85
2022/10/03 10:44:18;;;;;;;11.73;2.60;;;14.30;99.90;;;;;;5085119;28;20028;-84
2022/10/03 10:46:49;;;;;;;15.15;4.53;;;14.30;99.90;;;;;;5092394;28;20031;-85
2022/10/03 10:49:39;;;;;;;17.48;6.57;;;14.40;99.90;;;;;;5092179;28;20028;-85
2022/10/03 10:52:31;;;;;;;13.63;4.63;;;14.40;99.90;;;;;;5092476;28;20053;-84
2022/10/03 10:55:38;;;;;;;13.90;3.47;;;14.40;99.90;;;;;;5069182;28;20119;-85
2022/10/03 10:58:42;;;;;;;10.77;2.90;;;14.40;99.90;;;;;;5083774;28;20093;-85
2022/10/03 11:01:45;;;;;;;6.97;2.20;;;14.40;99.90;;;;;;5074016;28;20032;-84
2022/10/03 11:04:25;;;;;;;10.20;2.35;;;14.50;99.90;;;;;;5092049;28;20385;-85
2022/10/03 11:06:59;;;;;;;8.82;2.60;;;14.50;99.90;;;;;;5092235;28;20432;-85
2022/10/03 11:09:59;;;;;;;13.00;2.35;;;14.60;99.90;;;;;;5091765;28;20032;-85
2022/10/03 11:12:46;;;;;;;12.38;2.33;;;14.60;99.90;;;;;;5091727;28;20032;-85
2022/10/03 11:15:34;;;;;;;7.60;2.20;;;14.70;99.90;;;;;;5073956;28;20036;-85
2022/10/03 11:18:07;;;;;;;7.93;1.65;;;14.70;99.90;;;;;;5091842;28;20453;-85
2022/10/03 11:20:46;;;;;;;7.38;2.05;;;14.70;99.90;;;;;;5091603;28;20123;-85
2022/10/03 11:23:35;;;;;;;8.95;1.60;;;14.70;99.90;;;;;;5073618;28;20453;-85
2022/10/03 11:26:04;;;;;;;8.73;2.22;;;14.90;99.90;;;;;;5083241;28;20028;-84
2022/10/03 11:28:54;;;;;;;8.93;2.17;;;14.90;99.90;;;;;;5091812;28;20077;-84
2022/10/03 11:31:39;;;;;;;10.60;2.13;;;14.90;99.90;;;;;;5073694;28;20035;-85
2022/10/03 11:34:04;;;;;;;7.15;1.70;;;14.90;99.90;;;;;;5091622;28;20484;-84
2022/10/03 11:36:51;;;;;;;5.47;1.88;;;14.90;99.90;;;;;;5090739;28;20070;-85
2022/10/03 11:39:20;;;;;;;9.48;2.45;;;14.90;99.90;;;;;;5091576;28;20102;-84
2022/10/03 11:41:50;;;;;;;8.55;3.67;;;14.90;99.90;;;;;;5091669;28;20069;-85
2022/10/03 11:44:28;;;;;;;13.38;3.85;;;14.90;99.90;;;;;;5073602;28;20032;-85
2022/10/03 11:47:22;;;;;;;9.27;2.65;;;15.00;99.90;;;;;;5091484;28;20024;-85
2022/10/03 11:50:30;;;;;;;8.65;2.40;;;15.00;99.90;;;;;;5091250;28;20078;-85
2022/10/03 11:53:17;;;;;;;6.95;1.50;;;15.00;99.90;;;;;;5073331;28;20334;-85
2022/10/03 11:55:54;;;;;;;6.28;1.98;;;15.00;99.90;;;;;;5073583;28;20028;-85
2022/10/03 11:58:23;;;;;;;8.02;2.05;;;15.10;99.90;;;;;;5073961;28;20440;-84
2022/10/03 12:01:22;;;;;;;5.78;1.30;;;15.20;99.90;;;;;;5073565;28;20399;-85
2022/10/03 12:04:34;;;;;;;7.30;1.70;;;15.20;99.90;;;;;;5091557;28;20387;-84
2022/10/03 12:09:56;;;;;;;8.82;1.63;;;15.20;99.90;;;;;;5091254;28;20028;-85
2022/10/03 12:12:42;;;;;;;9.95;1.85;;;15.20;99.90;;;;;;5091329;28;20034;-85
2022/10/03 12:15:31;;;;;;;6.32;1.88;;;15.30;99.90;;;;;;5091478;28;20081;-84
2022/10/03 12:18:05;;;;;;;;;;;15.30;99.90;;;;;;5073638;28;20512;-85
2022/10/03 12:20:36;;;;;;;5.93;2.83;;;15.40;99.90;;;;;;5090932;28;19955;-85
2022/10/03 12:23:15;;;;;;;6.90;2.35;;;15.50;99.90;;;;;;5090993;28;20055;-84
2022/10/03 12:25:44;;;;;;;7.72;2.00;;;15.50;99.90;;;;;;5090885;28;20128;-84
2022/10/03 12:28:31;;;;;;;8.13;2.20;;;15.50;99.90;;;;;;5091169;28;20032;-84
2022/10/03 12:31:34;;;;;;;9.77;2.83;;;15.50;99.90;;;;;;5091076;28;20499;-84
2022/10/03 12:34:15;;;;;;;6.25;2.50;;;15.60;99.90;;;;;;5090940;28;20039;-84
2022/10/03 12:37:18;;;;;;;5.03;1.92;;;15.60;99.90;;;;;;5090948;28;20430;-84
2022/10/03 12:40:19;;;;;;;7.03;1.63;;;15.60;99.90;;;;;;5090563;28;20109;-84
2022/10/03 12:43:10;;;;;;;6.88;1.60;;;15.60;99.90;;;;;;5077454;28;20408;-84
2022/10/03 12:46:00;;;;;;;4.72;1.45;;;15.60;99.90;;;;;;5090803;28;20216;-84
2022/10/03 12:48:44;;;;;;;5.07;1.33;;;15.60;99.90;;;;;;5093175;28;20035;-83
2022/10/03 12:51:32;;;;;;;6.25;1.10;;;15.50;99.90;;;;;;5076969;28;20028;-84
2022/10/03 12:54:14;;;;;;;6.18;1.65;;;15.50;99.90;;;;;;5094710;28;20050;-83
2022/10/03 12:56:49;;;;;;;4.25;1.45;;;15.50;99.90;;;;;;5094772;28;20028;-84
2022/10/03 12:59:31;;;;;;;9.65;1.83;;;15.50;99.90;;;;;;5094704;28;20034;-84
2022/10/03 13:02:06;;;;;;;7.32;1.98;;;15.40;99.90;;;;;;5076609;28;20028;-84
2022/10/03 13:04:51;;;;;;;11.18;5.32;;;15.40;99.90;;;;;;5094710;28;20028;-84
2022/10/03 13:07:31;;;;;;;12.75;3.70;;;15.30;99.90;;;;;;5076399;28;20112;-84
2022/10/03 13:10:21;;;;;;;9.05;2.60;;;15.40;99.90;;;;;;5076124;28;20024;-84
2022/10/03 13:13:00;;;;;;;7.80;1.90;;;15.50;99.90;;;;;;5094614;28;20070;-84
2022/10/03 13:16:03;;;;;;;9.93;2.00;;;15.50;99.90;;;;;;5094670;28;20028;-84
2022/10/03 13:18:34;;;;;;;6.90;1.70;;;15.60;99.90;;;;;;5094597;28;20111;-84
2022/10/03 13:21:29;;;;;;;7.05;2.50;;;15.60;99.90;;;;;;5094541;28;20499;-85
2022/10/03 13:24:17;;;;;;;10.52;1.90;;;15.70;99.90;;;;;;5094075;28;20500;-84
2022/10/03 13:26:50;;;;;;;10.30;1.80;;;15.80;99.10;;;;;;5075924;28;20028;-84
2022/10/03 13:29:37;;;;;;;5.70;2.17;;;15.80;98.80;;;;;;5094163;28;20021;-84
2022/10/03 13:32:15;;;;;;;7.30;2.00;;;15.70;98.80;;;;;;5076010;28;20406;-84
2022/10/03 13:38:10;;;;;;;5.10;1.10;;;15.70;99.80;;;;;;5093683;28;20032;-84
2022/10/03 13:40:50;;;;;;;6.18;1.88;;;15.80;99.20;;;;;;5093624;28;20502;-84
2022/10/03 13:43:20;;;;;;;7.85;1.88;;;15.70;99.60;;;;;;5093467;28;20039;-84
2022/10/03 13:45:50;;;;;;;6.63;1.70;;;15.60;99.90;;;;;;5075327;28;20373;-84
2022/10/03 13:48:25;;;;;;;4.95;1.45;;;15.60;99.90;;;;;;5058875;28;20460;-84
2022/10/03 13:51:04;;;;;;;8.77;1.90;;;15.60;99.90;;;;;;5093376;28;20483;-84
2022/10/03 13:54:05;;;;;;;7.20;2.03;;;15.60;99.90;;;;;;5058715;28;20034;-84
2022/10/03 13:56:50;;;;;;;7.53;1.40;;;15.60;99.80;;;;;;5093455;28;20516;-84
2022/10/03 13:59:46;;;;;;;7.15;1.80;;;15.60;99.90;;;;;;5093060;28;20035;-84
2022/10/03 14:02:40;;;;;;;6.95;1.70;;;15.60;99.90;;;;;;5093377;28;20384;-84
2022/10/03 14:05:44;;;;;;;7.43;1.90;;;15.60;99.90;;;;;;5093393;28;20071;-84
2022/10/03 14:08:37;;;;;;;4.63;1.73;;;15.60;99.90;;;;;;5093381;28;20033;-84
2022/10/03 14:11:15;;;;;;;14.68;5.47;;;15.60;99.90;;;;;;5076349;28;20020;-84
2022/10/03 14:14:18;;;;;;;10.80;3.80;;;15.60;99.90;;;;;;5093057;28;20024;-84
2022/10/03 14:17:27;;;;;;;9.35;4.00;;;15.60;99.90;;;;;;5093062;28;20031;-84
2022/10/03 14:20:23;;;;;;;8.73;2.70;;;15.60;99.90;;;;;;5090942;28;20047;-84
2022/10/03 14:23:20;;;;;;;5.32;1.70;;;15.60;99.50;;;;;;5092932;28;20522;-84
2022/10/03 14:26:24;;;;;;;12.55;1.55;;;15.70;99.60;;;;;;5074804;28;20064;-84
2022/10/03 14:28:56;;;;;;;4.25;1.08;;;15.70;99.20;;;;;;5093009;28;20028;-84
2022/10/03 14:31:50;;;;;;;5.85;1.85;;;15.80;98.60;;;;;;5092798;28;20028;-84
2022/10/03 14:34:43;;;;;;;6.22;1.73;;;15.80;98.70;;;;;;5074477;28;20077;-84
2022/10/03 14:37:29;;;;;;;6.70;1.73;;;15.90;98.40;;;;;;5092602;28;20024;-84
2022/10/03 14:40:16;;;;;;;6.40;2.00;;;16.00;98.30;;;;;;5074412;28;20020;-84
2022/10/03 14:42:49;;;;;;;7.28;2.13;;;16.10;97.60;;;;;;5074386;28;20028;-84
2022/10/03 14:45:29;;;;;;;6.53;2.30;;;16.20;97.80;;;;;;5074414;28;20020;-84